Time;durP1;ratioP1;P1;durP2;ratioP2;P2;SDS_P1;SDS_P2;PMS_P1;PMS_P2;Temp;Humidity;BMP_temperature;BMP_pressure;BME280_temperature;BME280_humidity;BME280_pressure;Samples;Min_cycle;Max_cycle;Signal;HPM_P1;HPM_P2
2021/12/22 00:01:46;;;;;;;19.25;6.90;;;-4.70;99.90;;;;;;5024369;28;20132;-82
2021/12/22 00:04:12;;;;;;;16.55;7.22;;;-4.70;99.90;;;;;;5024464;28;20029;-82
2021/12/22 00:06:37;;;;;;;21.92;8.70;;;-4.80;99.90;;;;;;5024343;28;20037;-82
2021/12/22 00:09:05;;;;;;;19.02;7.40;;;-4.80;99.90;;;;;;5008094;28;20244;-82
2021/12/22 00:11:30;;;;;;;15.35;6.07;;;-4.80;99.90;;;;;;5024397;28;20034;-82
2021/12/22 00:13:56;;;;;;;15.45;6.75;;;-4.80;99.90;;;;;;5007991;28;20474;-82
2021/12/22 00:16:22;;;;;;;15.82;6.22;;;-4.90;99.90;;;;;;5024284;28;20053;-82
2021/12/22 00:18:47;;;;;;;17.55;7.30;;;-4.90;99.90;;;;;;5008251;28;20026;-82
2021/12/22 00:21:14;;;;;;;22.33;9.43;;;-4.90;99.90;;;;;;5007959;28;20034;-82
2021/12/22 00:23:40;;;;;;;24.33;11.88;;;-4.90;99.90;;;;;;5026205;28;20026;-82
2021/12/22 00:26:06;;;;;;;28.10;12.43;;;-5.00;99.90;;;;;;5023985;28;20033;-82
2021/12/22 00:28:52;;;;;;;26.65;11.43;;;-5.00;99.90;;;;;;5025243;28;20026;-82
2021/12/22 00:31:20;;;;;;;22.25;11.00;;;-5.00;99.90;;;;;;4945089;29;20107;-82
2021/12/22 00:33:51;;;;;;;24.05;11.93;;;-5.00;99.90;;;;;;4945028;29;20071;-82
2021/12/22 00:36:20;;;;;;;24.35;10.70;;;-5.00;99.90;;;;;;4929427;29;20066;-82
2021/12/22 00:38:47;;;;;;;21.20;10.40;;;-5.10;99.90;;;;;;4938046;29;20429;-82
2021/12/22 00:41:14;;;;;;;18.75;8.15;;;-5.20;99.90;;;;;;4933160;29;20043;-81
2021/12/22 00:43:40;;;;;;;22.40;9.23;;;-5.20;99.90;;;;;;4951864;29;20058;-82
2021/12/22 00:46:06;;;;;;;17.10;7.47;;;-5.10;99.90;;;;;;4951910;29;20039;-81
2021/12/22 00:48:32;;;;;;;18.80;7.20;;;-5.10;99.90;;;;;;4951733;29;20046;-82
2021/12/22 00:50:59;;;;;;;16.45;6.95;;;-5.20;99.90;;;;;;4967917;29;20282;-82
2021/12/22 00:53:24;;;;;;;17.77;7.83;;;-5.10;99.90;;;;;;4967659;29;20082;-82
2021/12/22 00:55:51;;;;;;;18.10;7.65;;;-5.20;99.90;;;;;;4967323;28;20047;-82
2021/12/22 00:58:17;;;;;;;16.83;7.28;;;-5.30;99.90;;;;;;4951823;29;20066;-82
2021/12/22 01:00:46;;;;;;;18.52;6.20;;;-5.30;99.90;;;;;;4951325;29;20047;-81
2021/12/22 01:03:13;;;;;;;17.07;7.53;;;-5.20;99.90;;;;;;4951466;29;20024;-81
2021/12/22 01:05:39;;;;;;;23.57;7.60;;;-5.20;99.90;;;;;;4951521;29;20346;-82
2021/12/22 01:08:04;;;;;;;17.67;7.15;;;-5.20;99.90;;;;;;4958191;28;20034;-82
2021/12/22 01:10:31;;;;;;;16.75;6.53;;;-5.40;99.90;;;;;;5026986;28;20555;-82
2021/12/22 01:13:04;;;;;;;17.48;7.00;;;-5.50;99.90;;;;;;5026798;28;20041;-82
2021/12/22 01:15:31;;;;;;;19.00;7.25;;;-5.40;99.90;;;;;;5010546;28;20034;-82
2021/12/22 01:18:10;;;;;;;15.13;6.30;;;-5.50;99.90;;;;;;5010477;28;20037;-82
2021/12/22 01:21:28;;;;;;;13.15;4.75;;;-5.50;99.90;;;;;;5010371;28;20037;-81
2021/12/22 01:23:23;;;;;;;17.00;5.82;;;-5.40;99.90;;;;;;5009779;28;20061;-82
2021/12/22 01:25:49;;;;;;;16.23;6.90;;;-5.20;99.90;;;;;;5010394;28;20044;-82
2021/12/22 01:28:16;;;;;;;17.25;5.95;;;-5.40;99.90;;;;;;5010297;28;20034;-82
2021/12/22 01:30:44;;;;;;;19.73;7.03;;;-5.50;99.90;;;;;;5009883;28;20125;-82
2021/12/22 01:33:12;;;;;;;16.70;6.00;;;-5.60;99.90;;;;;;5010166;28;20030;-82
2021/12/22 01:35:38;;;;;;;18.50;5.78;;;-5.60;99.90;;;;;;5010016;28;20101;-82
2021/12/22 01:38:05;;;;;;;20.05;6.70;;;-5.40;99.90;;;;;;5029647;28;20040;-80
2021/12/22 01:40:34;;;;;;;15.83;5.90;;;-5.30;99.90;;;;;;5029783;28;20468;-82
2021/12/22 01:43:02;;;;;;;17.47;5.80;;;-5.30;99.90;;;;;;5013197;28;20033;-81
2021/12/22 01:51:55;;;;;;;15.10;6.50;;;-5.30;99.90;;;;;;5046045;28;20079;-82
2021/12/22 01:54:27;;;;;;;17.20;5.60;;;-5.40;99.90;;;;;;5008832;28;20063;-82
2021/12/22 01:56:54;;;;;;;17.57;5.70;;;-5.40;99.90;;;;;;5012984;28;20041;-82
2021/12/22 01:59:21;;;;;;;15.27;5.65;;;-5.50;99.90;;;;;;5028951;28;20033;-81
2021/12/22 02:01:47;;;;;;;15.90;4.97;;;-5.50;99.90;;;;;;5029594;28;20050;-82
2021/12/22 02:04:13;;;;;;;13.02;4.85;;;-5.50;99.90;;;;;;5029196;28;20097;-81
2021/12/22 02:06:41;;;;;;;16.70;5.73;;;-5.50;99.90;;;;;;5029083;28;20060;-81
2021/12/22 02:09:10;;;;;;;13.40;4.57;;;-5.50;99.90;;;;;;5029053;28;20029;-81
2021/12/22 02:11:35;;;;;;;16.73;5.97;;;-5.50;99.90;;;;;;5029338;28;20136;-81
2021/12/22 02:14:04;;;;;;;15.40;5.63;;;-5.50;99.90;;;;;;5045456;28;20395;-82
2021/12/22 02:16:34;;;;;;;17.57;5.77;;;-5.40;99.90;;;;;;5029147;28;20033;-81
2021/12/22 02:19:03;;;;;;;19.50;6.35;;;-5.30;99.90;;;;;;5028808;28;20029;-82
2021/12/22 02:21:34;;;;;;;22.17;6.77;;;-5.30;99.90;;;;;;5028863;28;20048;-82
2021/12/22 02:24:00;;;;;;;19.63;6.00;;;-5.40;99.90;;;;;;5028849;28;20026;-82
2021/12/22 02:29:35;;;;;;;20.33;6.40;;;-5.40;99.90;;;;;;4969053;28;20217;-82
2021/12/22 02:34:52;;;;;;;;;;;-5.60;99.90;;;;;;4951579;28;20115;-82
2021/12/22 02:37:24;;;;;;;14.33;4.13;;;-5.50;99.90;;;;;;4969124;28;20314;-82
2021/12/22 02:39:59;;;;;;;12.90;5.00;;;-5.50;99.90;;;;;;4952866;28;20054;-82
2021/12/22 02:42:29;;;;;;;18.07;5.80;;;-5.60;99.90;;;;;;4969296;28;20050;-82
2021/12/22 02:44:54;;;;;;;18.42;5.30;;;-5.70;99.90;;;;;;4952817;28;20055;-82
2021/12/22 02:47:25;;;;;;;14.37;5.60;;;-5.70;99.90;;;;;;4969072;28;20147;-82
2021/12/22 02:49:50;;;;;;;15.03;4.53;;;-5.70;99.90;;;;;;4952778;28;20250;-82
2021/12/22 02:52:18;;;;;;;12.70;4.93;;;-5.70;99.90;;;;;;4985211;28;20363;-82
2021/12/22 02:54:52;;;;;;;13.70;4.37;;;-5.60;99.90;;;;;;4952847;28;20035;-82
2021/12/22 02:57:31;;;;;;;14.57;4.97;;;-5.60;99.90;;;;;;4952843;28;20043;-82
2021/12/22 03:03:33;;;;;;;14.45;4.93;;;-5.70;99.90;;;;;;4981114;28;20136;-82
2021/12/22 03:05:28;;;;;;;14.37;4.57;;;-5.70;99.90;;;;;;5017173;28;20033;-82
2021/12/22 03:07:54;;;;;;;16.77;4.90;;;-5.70;99.90;;;;;;5028533;28;20041;-82
2021/12/22 03:10:21;;;;;;;15.17;5.17;;;-5.70;99.90;;;;;;5028315;28;20040;-82
2021/12/22 03:12:52;;;;;;;15.73;4.37;;;-5.70;99.90;;;;;;5028381;28;20044;-82
2021/12/22 03:15:18;;;;;;;16.17;5.30;;;-5.80;99.90;;;;;;5011646;28;20042;-82
2021/12/22 03:17:45;;;;;;;12.80;5.13;;;-5.90;99.90;;;;;;5011839;28;20059;-82
2021/12/22 03:20:13;;;;;;;13.83;4.13;;;-5.90;99.90;;;;;;5011681;28;20045;-82
2021/12/22 03:22:42;;;;;;;13.80;4.17;;;-5.80;99.90;;;;;;5028200;28;20033;-82
2021/12/22 03:25:14;;;;;;;15.67;4.77;;;-5.80;99.90;;;;;;5027985;28;20061;-82
2021/12/22 03:27:41;;;;;;;13.70;4.73;;;-5.90;99.90;;;;;;5011674;28;20143;-82
2021/12/22 03:30:08;;;;;;;13.70;5.03;;;-5.90;99.90;;;;;;5010923;28;20033;-82
2021/12/22 03:32:33;;;;;;;15.30;4.70;;;-5.90;99.90;;;;;;5029867;28;20075;-81
2021/12/22 03:34:59;;;;;;;13.97;4.67;;;-6.00;99.90;;;;;;5027963;28;20029;-82
2021/12/22 03:37:24;;;;;;;12.07;4.33;;;-6.00;99.90;;;;;;5027887;28;20053;-82
2021/12/22 03:39:50;;;;;;;17.03;5.60;;;-6.00;99.90;;;;;;5027861;28;20030;-81
2021/12/22 03:42:16;;;;;;;12.47;4.17;;;-6.00;99.90;;;;;;5044332;28;20550;-81
2021/12/22 03:44:42;;;;;;;12.73;4.27;;;-6.10;99.90;;;;;;5027443;28;20034;-81
2021/12/22 03:47:08;;;;;;;14.40;4.27;;;-6.00;99.90;;;;;;5027615;28;20035;-81
2021/12/22 03:49:34;;;;;;;15.60;4.70;;;-6.20;99.90;;;;;;5027846;28;20040;-82
2021/12/22 03:52:00;;;;;;;18.07;5.57;;;-6.20;99.90;;;;;;5027656;28;20033;-82
2021/12/22 03:54:26;;;;;;;12.93;4.43;;;-6.20;99.90;;;;;;5027751;28;20457;-82
2021/12/22 03:56:51;;;;;;;14.83;4.70;;;-6.20;99.90;;;;;;5027394;28;20034;-82
2021/12/22 03:59:18;;;;;;;12.37;4.87;;;-6.10;99.90;;;;;;5027488;28;20033;-82
2021/12/22 04:01:44;;;;;;;10.80;3.60;;;-6.20;99.90;;;;;;5027642;28;20034;-82
2021/12/22 04:04:14;;;;;;;13.90;4.07;;;-6.20;99.90;;;;;;5027625;28;20391;-82
2021/12/22 04:06:41;;;;;;;;;;;-6.20;99.90;;;;;;5044528;28;20120;-81
2021/12/22 04:09:07;;;;;;;9.57;3.07;;;-6.20;99.90;;;;;;5044046;28;19913;-81
2021/12/22 04:11:33;;;;;;;10.80;3.40;;;-6.30;99.90;;;;;;5027454;28;20032;-82
2021/12/22 04:13:59;;;;;;;14.07;4.10;;;-6.40;99.90;;;;;;5027657;28;20489;-81
2021/12/22 04:16:25;;;;;;;13.93;4.00;;;-6.30;99.90;;;;;;5028353;28;20044;-82
2021/12/22 04:18:51;;;;;;;17.83;4.90;;;-6.20;99.90;;;;;;5014936;28;20083;-82
2021/12/22 04:21:16;;;;;;;12.30;3.97;;;-6.10;99.90;;;;;;5030921;28;20468;-82
2021/12/22 04:23:42;;;;;;;14.70;5.17;;;-6.10;99.90;;;;;;5031284;28;20053;-82
2021/12/22 04:26:08;;;;;;;13.10;4.67;;;-6.10;99.90;;;;;;5030988;28;20036;-82
2021/12/22 04:28:54;;;;;;;13.40;4.70;;;-6.10;99.90;;;;;;5047452;28;20041;-81
2021/12/22 04:31:19;;;;;;;16.83;4.23;;;-6.10;99.90;;;;;;4935766;29;20075;-81
2021/12/22 04:33:45;;;;;;;16.00;4.83;;;-6.10;99.90;;;;;;4952378;29;20043;-81
2021/12/22 04:36:11;;;;;;;17.33;5.87;;;-6.10;99.90;;;;;;4952158;29;20050;-82
2021/12/22 04:38:36;;;;;;;15.33;4.67;;;-6.10;99.90;;;;;;4936275;29;20047;-82
2021/12/22 04:41:02;;;;;;;16.00;5.57;;;-6.20;99.90;;;;;;4936163;29;20055;-82
2021/12/22 04:43:28;;;;;;;15.60;4.70;;;-6.20;99.90;;;;;;4952237;29;20049;-81
2021/12/22 04:45:53;;;;;;;12.50;4.43;;;-6.30;99.90;;;;;;4968040;28;20031;-81
2021/12/22 04:48:19;;;;;;;14.20;4.80;;;-6.30;99.90;;;;;;4936250;29;20035;-81
2021/12/22 04:50:45;;;;;;;16.40;4.53;;;-6.30;99.90;;;;;;4968024;28;20110;-81
2021/12/22 04:53:16;;;;;;;16.13;5.33;;;-6.40;99.90;;;;;;4935999;29;20514;-81
2021/12/22 04:55:41;;;;;;;20.03;5.67;;;-6.30;99.90;;;;;;4936016;29;20047;-81
2021/12/22 04:58:07;;;;;;;14.63;4.80;;;-6.30;99.90;;;;;;4951937;29;20045;-82
2021/12/22 05:00:35;;;;;;;15.87;5.60;;;-6.30;99.90;;;;;;4935700;29;20078;-82
2021/12/22 05:03:01;;;;;;;16.13;4.87;;;-6.30;99.90;;;;;;4935493;29;20062;-81
2021/12/22 05:05:27;;;;;;;20.00;4.90;;;-6.30;99.90;;;;;;4935817;29;20094;-81
2021/12/22 05:07:53;;;;;;;18.90;5.70;;;-6.20;99.90;;;;;;4952728;28;20042;-82
2021/12/22 05:10:19;;;;;;;16.90;5.33;;;-6.10;99.90;;;;;;4994565;28;20034;-82
2021/12/22 05:12:46;;;;;;;17.60;5.30;;;-6.00;99.90;;;;;;4994402;28;20045;-82
2021/12/22 05:15:12;;;;;;;21.00;5.23;;;-6.10;99.90;;;;;;4994413;28;20030;-82
2021/12/22 05:20:06;;;;;;;17.10;5.50;;;-6.10;99.90;;;;;;5010596;28;20061;-82
2021/12/22 05:22:31;;;;;;;15.53;5.30;;;-6.20;99.90;;;;;;5010332;28;20034;-82
2021/12/22 05:24:59;;;;;;;18.30;5.93;;;-6.20;99.90;;;;;;4994712;28;20429;-82
2021/12/22 05:27:28;;;;;;;22.47;6.23;;;-6.20;99.90;;;;;;4993816;28;20109;-82
2021/12/22 05:29:54;;;;;;;17.03;5.80;;;-6.10;99.90;;;;;;4994010;28;20057;-82
2021/12/22 05:32:22;;;;;;;20.37;6.27;;;-6.20;99.90;;;;;;5001622;28;20037;-82
2021/12/22 05:34:48;;;;;;;26.47;7.20;;;-6.10;99.90;;;;;;5037037;28;20041;-81
2021/12/22 05:37:13;;;;;;;18.10;5.60;;;-6.20;99.90;;;;;;5034688;28;20041;-82
2021/12/22 05:39:39;;;;;;;17.83;6.00;;;-6.30;99.90;;;;;;5031207;28;20030;-81
2021/12/22 05:42:05;;;;;;;20.40;6.43;;;-6.20;99.90;;;;;;5010302;28;20037;-81
2021/12/22 05:44:30;;;;;;;14.67;5.17;;;-6.20;99.90;;;;;;5026345;28;20044;-82
2021/12/22 05:46:56;;;;;;;17.47;6.13;;;-6.30;99.90;;;;;;5026202;28;20429;-82
2021/12/22 05:49:22;;;;;;;15.30;5.00;;;-6.40;99.90;;;;;;5026322;28;20114;-82
2021/12/22 05:51:47;;;;;;;19.17;6.13;;;-6.50;99.90;;;;;;5026234;28;20030;-80
2021/12/22 05:54:13;;;;;;;25.73;7.00;;;-6.40;99.90;;;;;;5024903;28;20033;-80
2021/12/22 05:56:38;;;;;;;20.20;5.97;;;-6.30;99.90;;;;;;5029607;28;20040;-80
2021/12/22 05:59:04;;;;;;;17.23;5.97;;;-6.20;99.90;;;;;;5013429;28;20037;-80
2021/12/22 06:01:30;;;;;;;17.10;5.53;;;-6.20;99.90;;;;;;5025769;28;20058;-79
2021/12/22 06:03:56;;;;;;;19.00;5.50;;;-6.40;99.90;;;;;;5025619;28;20026;-81
2021/12/22 06:06:22;;;;;;;22.43;4.77;;;-6.40;99.90;;;;;;5025782;28;20112;-80
2021/12/22 06:08:48;;;;;;;21.07;5.83;;;-6.20;99.90;;;;;;5025519;28;20034;-80
2021/12/22 06:11:14;;;;;;;17.03;5.73;;;-6.10;99.90;;;;;;5025439;28;20044;-80
2021/12/22 06:13:39;;;;;;;17.23;5.40;;;-6.20;99.90;;;;;;5036301;28;20063;-80
2021/12/22 06:16:05;;;;;;;16.40;5.37;;;-6.30;99.90;;;;;;5033972;28;20025;-81
2021/12/22 06:18:31;;;;;;;15.87;6.00;;;-6.50;99.90;;;;;;5044956;28;20080;-80
2021/12/22 06:20:58;;;;;;;15.23;4.97;;;-6.40;99.90;;;;;;5028054;28;20113;-81
2021/12/22 06:23:23;;;;;;;13.73;5.10;;;-6.30;99.90;;;;;;5045378;28;20033;-81
2021/12/22 06:25:49;;;;;;;19.67;5.33;;;-6.30;99.90;;;;;;5044964;28;20040;-80
2021/12/22 06:28:15;;;;;;;17.33;4.60;;;-6.40;99.90;;;;;;5040942;28;20039;-80
2021/12/22 06:30:42;;;;;;;19.90;6.40;;;-6.40;99.90;;;;;;5044710;28;20037;-81
2021/12/22 06:33:11;;;;;;;16.27;5.20;;;-6.50;99.90;;;;;;5028545;28;20053;-81
2021/12/22 06:35:37;;;;;;;15.17;4.57;;;-6.50;99.90;;;;;;5012317;28;20041;-81
2021/12/22 06:38:03;;;;;;;17.47;5.67;;;-6.40;99.90;;;;;;5042068;28;20018;-81
2021/12/22 06:40:28;;;;;;;18.87;5.47;;;-6.50;99.90;;;;;;5024265;28;20042;-81
2021/12/22 06:42:54;;;;;;;20.30;5.13;;;-6.40;99.90;;;;;;5025457;28;20065;-82
2021/12/22 06:45:22;;;;;;;19.33;6.07;;;-6.50;99.90;;;;;;5025370;28;20044;-83
2021/12/22 06:47:48;;;;;;;19.10;5.43;;;-6.40;99.90;;;;;;5025415;28;20076;-83
2021/12/22 06:50:14;;;;;;;18.27;5.70;;;-6.50;99.90;;;;;;5025175;28;20029;-82
2021/12/22 06:52:39;;;;;;;17.70;5.97;;;-6.50;99.90;;;;;;5025609;28;20026;-81
2021/12/22 06:55:06;;;;;;;16.67;4.70;;;-6.60;99.90;;;;;;5024719;28;20038;-82
2021/12/22 06:57:33;;;;;;;19.70;5.83;;;-6.60;99.90;;;;;;5025154;28;20044;-81
2021/12/22 06:59:59;;;;;;;22.43;5.97;;;-6.30;99.90;;;;;;5024528;28;20041;-81
2021/12/22 07:02:26;;;;;;;23.47;6.27;;;-6.20;99.90;;;;;;5025071;28;20105;-81
2021/12/22 07:04:52;;;;;;;23.80;6.90;;;-6.30;99.90;;;;;;5024894;28;20030;-81
2021/12/22 07:07:18;;;;;;;19.00;6.13;;;-6.30;99.90;;;;;;5024859;28;20117;-81
2021/12/22 07:09:43;;;;;;;15.47;5.07;;;-6.50;99.90;;;;;;5008235;28;20040;-81
2021/12/22 07:12:10;;;;;;;16.73;4.53;;;-6.50;99.90;;;;;;5025061;28;20394;-81
2021/12/22 07:14:36;;;;;;;21.47;6.50;;;-6.60;99.90;;;;;;5024893;28;20034;-82
2021/12/22 07:17:02;;;;;;;17.17;5.10;;;-6.60;99.90;;;;;;5024927;28;20128;-82
2021/12/22 07:19:28;;;;;;;21.33;6.17;;;-6.50;99.90;;;;;;5008271;28;20041;-81
2021/12/22 07:21:54;;;;;;;18.63;6.00;;;-6.60;99.90;;;;;;5025167;28;20042;-81
2021/12/22 07:24:21;;;;;;;23.73;6.30;;;-6.50;99.90;;;;;;5024754;28;20025;-81
2021/12/22 07:26:46;;;;;;;20.50;6.57;;;-6.60;99.90;;;;;;5008450;28;20041;-81
2021/12/22 07:29:12;;;;;;;19.63;5.23;;;-6.60;99.90;;;;;;5024364;28;20034;-80
2021/12/22 07:31:38;;;;;;;19.53;5.90;;;-6.70;99.90;;;;;;5024216;28;20049;-81
2021/12/22 07:34:19;;;;;;;19.17;6.03;;;-6.60;99.90;;;;;;5024362;28;20057;-81
2021/12/22 07:36:59;;;;;;;18.53;5.60;;;-6.70;99.90;;;;;;5024479;28;20045;-80
2021/12/22 07:39:25;;;;;;;18.10;4.87;;;-6.50;99.90;;;;;;5038443;28;20101;-80
2021/12/22 07:41:51;;;;;;;16.43;4.80;;;-6.60;99.90;;;;;;5011434;28;20068;-80
2021/12/22 07:44:18;;;;;;;19.30;6.00;;;-6.80;99.90;;;;;;5011552;28;20026;-80
2021/12/22 07:46:44;;;;;;;14.37;5.10;;;-6.90;99.90;;;;;;5011281;28;20055;-80
2021/12/22 07:49:09;;;;;;;14.30;4.67;;;-6.90;99.90;;;;;;5011242;28;20046;-81
2021/12/22 07:51:35;;;;;;;18.30;5.13;;;-6.90;99.90;;;;;;5046894;28;20052;-81
2021/12/22 07:54:01;;;;;;;13.90;5.07;;;-6.90;99.90;;;;;;5047603;28;20030;-81
2021/12/22 07:56:27;;;;;;;16.70;5.00;;;-7.00;99.90;;;;;;5014310;28;20038;-81
2021/12/22 07:58:54;;;;;;;15.73;5.57;;;-7.00;99.90;;;;;;5014165;28;20032;-80
2021/12/22 08:01:20;;;;;;;17.10;5.17;;;-6.80;99.90;;;;;;5030554;28;20409;-80
2021/12/22 08:03:45;;;;;;;18.03;5.30;;;-6.50;99.90;;;;;;5031035;28;20033;-81
2021/12/22 08:06:12;;;;;;;15.37;4.90;;;-6.50;99.90;;;;;;5013346;28;20045;-81
2021/12/22 08:08:38;;;;;;;19.70;7.00;;;-6.20;99.90;;;;;;5014606;28;20034;-81
2021/12/22 08:11:04;;;;;;;16.80;4.87;;;-6.30;99.90;;;;;;5014460;28;20106;-81
2021/12/22 08:13:30;;;;;;;18.30;5.67;;;-6.40;99.90;;;;;;5014695;28;20087;-81
2021/12/22 08:15:55;;;;;;;16.27;5.23;;;-6.50;99.90;;;;;;5047343;28;20029;-81
2021/12/22 08:18:21;;;;;;;18.13;5.90;;;-6.60;99.90;;;;;;5047456;28;20053;-81
2021/12/22 08:20:46;;;;;;;17.67;4.57;;;-6.60;99.90;;;;;;5014345;28;20064;-81
2021/12/22 08:23:12;;;;;;;19.93;5.80;;;-6.50;99.90;;;;;;5014440;28;20501;-81
2021/12/22 08:25:38;;;;;;;16.03;5.17;;;-6.20;99.90;;;;;;5048442;28;20030;-81
2021/12/22 08:28:05;;;;;;;20.17;4.80;;;-6.10;99.90;;;;;;5014218;28;20060;-81
2021/12/22 08:30:31;;;;;;;18.47;5.57;;;-6.00;99.90;;;;;;5013644;28;20038;-81
2021/12/22 08:32:59;;;;;;;19.10;4.97;;;-6.10;99.90;;;;;;5030676;28;20064;-81
2021/12/22 08:35:26;;;;;;;20.03;5.27;;;-6.10;99.90;;;;;;5013591;28;20034;-81
2021/12/22 08:40:36;;;;;;;18.67;4.80;;;-5.80;99.90;;;;;;5047877;28;20044;-81
2021/12/22 08:43:02;;;;;;;16.27;5.37;;;-5.70;99.90;;;;;;5030173;28;20034;-81
2021/12/22 08:45:28;;;;;;;20.63;5.60;;;-5.50;99.90;;;;;;5030018;28;20045;-81
2021/12/22 08:47:54;;;;;;;17.10;5.23;;;-5.60;99.90;;;;;;5046536;28;20040;-81
2021/12/22 08:50:24;;;;;;;23.53;7.67;;;-5.70;99.90;;;;;;5030049;28;20037;-81
2021/12/22 08:52:50;;;;;;;17.13;6.87;;;-5.60;99.90;;;;;;5029882;28;20026;-81
2021/12/22 08:55:16;;;;;;;18.80;6.93;;;-5.50;99.90;;;;;;5046179;28;20029;-81
2021/12/22 08:57:41;;;;;;;22.10;7.37;;;-5.60;99.90;;;;;;5030066;28;20034;-81
2021/12/22 09:00:10;;;;;;;18.67;6.53;;;-5.40;99.90;;;;;;5029476;28;20030;-81
2021/12/22 09:02:36;;;;;;;21.50;7.33;;;-5.40;99.90;;;;;;5029043;28;20092;-81
2021/12/22 09:05:04;;;;;;;22.67;7.97;;;-4.90;99.90;;;;;;5029668;28;20029;-81
2021/12/22 09:07:29;;;;;;;23.87;7.53;;;-4.90;99.90;;;;;;5046051;28;20037;-81
2021/12/22 09:09:55;;;;;;;20.47;7.27;;;-5.00;99.90;;;;;;5046378;28;20044;-81
2021/12/22 09:12:21;;;;;;;18.93;5.80;;;-5.10;99.90;;;;;;5029700;28;20347;-81
2021/12/22 09:14:47;;;;;;;15.43;6.00;;;-4.80;99.90;;;;;;5029542;28;20037;-81
2021/12/22 09:17:12;;;;;;;21.07;5.23;;;-4.70;99.90;;;;;;5029361;28;20089;-81
2021/12/22 09:19:38;;;;;;;12.43;4.17;;;-4.50;99.90;;;;;;5029535;28;20462;-81
2021/12/22 09:22:03;;;;;;;12.87;5.23;;;-4.30;99.90;;;;;;5029138;28;20037;-81
2021/12/22 09:24:30;;;;;;;15.43;4.40;;;-4.30;99.90;;;;;;5029485;28;20089;-82
2021/12/22 09:26:56;;;;;;;15.43;5.03;;;-4.10;99.90;;;;;;5029177;28;20029;-81
2021/12/22 09:29:24;;;;;;;13.60;5.80;;;-3.90;99.90;;;;;;5029272;28;20124;-81
2021/12/22 09:31:49;;;;;;;15.07;5.43;;;-3.60;99.90;;;;;;5029206;28;20052;-81
2021/12/22 09:34:15;;;;;;;14.53;5.33;;;-3.40;99.90;;;;;;5029456;28;20037;-81
2021/12/22 09:36:43;;;;;;;16.90;5.57;;;-3.20;99.90;;;;;;5029210;28;20031;-82
2021/12/22 09:39:09;;;;;;;13.30;5.57;;;-3.10;99.90;;;;;;5029249;28;20041;-82
2021/12/22 09:41:34;;;;;;;15.52;6.97;;;-3.10;99.90;;;;;;5028959;28;20402;-82
2021/12/22 09:44:00;;;;;;;15.87;6.57;;;-2.90;99.90;;;;;;5029339;28;20151;-82
2021/12/22 09:46:26;;;;;;;17.10;6.18;;;-2.90;99.90;;;;;;5028833;28;20037;-82
2021/12/22 09:49:06;;;;;;;17.10;4.85;;;-2.70;99.90;;;;;;5045858;28;20049;-82
2021/12/22 09:54:00;;;;;;;14.55;5.55;;;-2.70;99.90;;;;;;5045446;28;20034;-81
2021/12/22 09:56:30;;;;;;;13.52;5.18;;;-2.60;99.90;;;;;;5028773;28;20401;-82
2021/12/22 09:58:56;;;;;;;11.48;4.10;;;-2.60;99.90;;;;;;5028949;28;20036;-82
2021/12/22 10:01:23;;;;;;;14.48;5.78;;;-2.50;99.90;;;;;;5045438;28;20060;-83
2021/12/22 10:03:54;;;;;;;15.80;6.40;;;-2.40;99.90;;;;;;5028756;28;20029;-83
2021/12/22 10:06:20;;;;;;;13.65;6.45;;;-2.40;99.90;;;;;;5045578;28;20040;-83
2021/12/22 10:08:59;;;;;;;13.10;5.55;;;-2.20;99.90;;;;;;5028791;28;20045;-83
2021/12/22 10:11:25;;;;;;;12.52;4.97;;;-2.20;99.90;;;;;;5028931;28;20033;-83
2021/12/22 10:13:50;;;;;;;12.43;5.82;;;-2.20;99.90;;;;;;5044794;28;20540;-83
2021/12/22 10:16:20;;;;;;;11.70;4.75;;;-2.10;99.90;;;;;;5045395;28;20037;-83
2021/12/22 10:18:46;;;;;;;14.93;6.45;;;-2.00;99.90;;;;;;5029446;28;20056;-82
2021/12/22 10:21:21;;;;;;;13.23;6.05;;;-1.90;99.90;;;;;;5028601;28;20041;-83
2021/12/22 10:23:50;;;;;;;15.95;6.03;;;-1.80;99.90;;;;;;5044973;28;20110;-84
2021/12/22 10:26:21;;;;;;;13.77;5.95;;;-1.80;99.90;;;;;;5045116;28;20034;-84
2021/12/22 10:32:35;;;;;;;12.93;5.22;;;-1.70;99.90;;;;;;4963799;28;20058;-84
2021/12/22 10:35:05;;;;;;;14.23;5.70;;;-1.60;99.90;;;;;;4933692;29;20031;-83
2021/12/22 10:37:41;;;;;;;10.02;5.07;;;-1.50;99.90;;;;;;4933270;29;20039;-84
2021/12/22 10:40:29;;;;;;;12.65;5.25;;;-1.50;99.90;;;;;;4930191;29;20070;-84
2021/12/22 10:42:56;;;;;;;12.60;4.68;;;-1.50;99.90;;;;;;4930476;29;20040;-83
2021/12/22 10:45:23;;;;;;;11.27;4.97;;;-1.40;99.90;;;;;;4930171;29;20063;-84
2021/12/22 10:50:42;;;;;;;10.82;4.88;;;-1.30;99.90;;;;;;4930076;29;20064;-84
2021/12/22 10:53:09;;;;;;;11.02;4.22;;;-1.30;99.90;;;;;;4930184;29;20127;-84
2021/12/22 10:55:47;;;;;;;11.93;5.50;;;-1.20;99.90;;;;;;4929862;29;20087;-84
2021/12/22 10:58:24;;;;;;;7.75;3.28;;;-1.20;99.90;;;;;;4930080;29;20035;-85
2021/12/22 11:01:16;;;;;;;10.18;4.88;;;-1.10;99.90;;;;;;4930207;29;20043;-83
2021/12/22 11:03:50;;;;;;;10.55;4.65;;;-1.10;99.90;;;;;;4930161;29;20043;-85
2021/12/22 11:06:22;;;;;;;12.52;4.57;;;-1.00;99.90;;;;;;4929873;29;20038;-84
2021/12/22 11:08:57;;;;;;;10.77;4.57;;;-0.90;99.90;;;;;;4973724;28;20081;-85
2021/12/22 11:11:26;;;;;;;9.77;4.97;;;-1.00;99.90;;;;;;4991915;28;20037;-84
2021/12/22 11:14:12;;;;;;;10.13;4.38;;;-0.90;99.90;;;;;;5024415;28;20478;-84
2021/12/22 11:16:56;;;;;;;11.02;4.15;;;-0.90;99.90;;;;;;4958892;28;20034;-85
2021/12/22 11:19:24;;;;;;;12.35;5.22;;;-0.90;99.90;;;;;;5024607;28;20076;-87
2021/12/22 11:21:58;;;;;;;13.70;4.72;;;-0.80;99.90;;;;;;5024569;28;20042;-86
2021/12/22 11:24:26;;;;;;;9.20;5.03;;;-0.80;99.90;;;;;;5024065;28;20034;-86
2021/12/22 11:26:53;;;;;;;11.07;5.88;;;-0.70;99.90;;;;;;4991608;28;20033;-86
2021/12/22 11:31:49;;;;;;;13.38;4.95;;;-0.60;99.90;;;;;;5037674;28;20096;-86
2021/12/22 11:34:17;;;;;;;8.20;3.95;;;-0.60;99.90;;;;;;5044522;28;20053;-86
2021/12/22 11:36:45;;;;;;;12.85;5.43;;;-0.50;99.90;;;;;;5044634;28;20037;-87
2021/12/22 11:39:11;;;;;;;9.88;4.80;;;-0.50;99.90;;;;;;5047691;28;20146;-88
2021/12/22 11:41:43;;;;;;;9.43;4.70;;;-0.50;99.90;;;;;;5047638;28;20040;-86
2021/12/22 11:44:10;;;;;;;11.32;5.57;;;-0.50;99.90;;;;;;5031550;28;20044;-87
2021/12/22 11:46:37;;;;;;;10.35;5.60;;;-0.40;99.90;;;;;;5047669;28;20029;-87
2021/12/22 11:49:03;;;;;;;9.27;4.38;;;-0.40;99.90;;;;;;5030955;28;20029;-87
2021/12/22 11:51:32;;;;;;;11.02;5.00;;;-0.40;99.90;;;;;;5047643;28;20029;-87
2021/12/22 11:54:10;;;;;;;10.27;5.22;;;-0.30;99.90;;;;;;5031121;28;20040;-87
2021/12/22 11:56:43;;;;;;;11.98;5.22;;;-0.20;99.90;;;;;;5031201;28;20055;-87
2021/12/22 11:59:29;;;;;;;10.38;4.75;;;-0.20;99.90;;;;;;5031042;28;20040;-88
2021/12/22 12:02:24;;;;;;;9.70;4.40;;;-0.20;99.90;;;;;;5030994;28;20037;-88
2021/12/22 12:04:53;;;;;;;8.63;4.78;;;-0.20;99.90;;;;;;5047808;28;20033;-88
2021/12/22 12:07:39;;;;;;;9.73;4.22;;;-0.10;99.90;;;;;;5030899;28;20060;-88
2021/12/22 12:10:34;;;;;;;8.10;3.97;;;0.00;99.90;;;;;;5063671;28;20021;-89
2021/12/22 12:13:07;;;;;;;9.77;3.45;;;0.20;99.90;;;;;;5047680;28;20412;-89
2021/12/22 12:21:55;;;;;;;10.05;4.10;;;0.40;99.90;;;;;;5047221;28;20479;-88
2021/12/22 12:24:41;;;;;;;7.85;4.20;;;0.50;99.90;;;;;;5030598;28;20040;-88
2021/12/22 12:27:35;;;;;;;8.25;4.00;;;0.50;99.90;;;;;;5030811;28;20025;-87
2021/12/22 12:30:20;;;;;;;11.23;4.95;;;0.50;99.90;;;;;;5038665;28;20045;-88
2021/12/22 12:32:45;;;;;;;8.07;4.45;;;0.60;99.90;;;;;;5046995;28;20033;-89
2021/12/22 12:35:22;;;;;;;10.95;4.20;;;0.70;99.90;;;;;;5030646;28;20053;-89
2021/12/22 12:38:11;;;;;;;11.25;5.22;;;0.70;99.90;;;;;;5066461;28;20052;-89
2021/12/22 12:40:55;;;;;;;10.68;4.53;;;0.80;99.90;;;;;;5050742;28;20504;-89
2021/12/22 12:49:15;;;;;;;8.38;4.20;;;0.80;99.90;;;;;;5068250;28;20029;-89
2021/12/22 12:51:47;;;;;;;10.73;5.00;;;0.90;99.90;;;;;;5033651;28;20102;-89
2021/12/22 12:54:15;;;;;;;11.20;5.63;;;0.80;99.90;;;;;;5033858;28;20025;-89
2021/12/22 12:56:49;;;;;;;9.93;4.95;;;0.70;99.90;;;;;;5033540;28;20041;-89
2021/12/22 12:59:26;;;;;;;11.05;4.32;;;0.90;99.90;;;;;;5033529;28;20086;-89
2021/12/22 13:01:52;;;;;;;10.23;5.05;;;1.00;99.90;;;;;;5033597;28;20133;-90
2021/12/22 13:04:31;;;;;;;12.68;4.90;;;1.00;99.90;;;;;;5033758;28;20029;-89
2021/12/22 13:07:00;;;;;;;10.73;4.80;;;0.90;99.90;;;;;;5050049;28;20029;-89
2021/12/22 13:09:27;;;;;;;10.25;5.35;;;0.90;99.90;;;;;;5033710;28;20033;-89
2021/12/22 13:17:55;;;;;;;10.73;4.65;;;0.90;99.90;;;;;;5050374;28;20033;-91
2021/12/22 13:20:28;;;;;;;9.52;5.05;;;0.90;99.90;;;;;;5034844;28;20102;-91
2021/12/22 13:22:56;;;;;;;9.52;4.35;;;0.80;99.90;;;;;;5033492;28;20065;-91
2021/12/22 13:25:25;;;;;;;12.75;4.63;;;0.80;99.90;;;;;;5033392;28;20040;-92
2021/12/22 13:27:54;;;;;;;9.45;4.88;;;0.90;99.90;;;;;;5033287;28;20029;-94
2021/12/22 13:30:22;;;;;;;9.80;4.40;;;0.80;99.90;;;;;;5033063;28;20120;-92
2021/12/22 13:33:04;;;;;;;8.82;4.68;;;0.90;99.90;;;;;;5033263;28;20032;-93
2021/12/22 13:35:29;;;;;;;6.80;4.13;;;0.80;99.90;;;;;;5049754;28;20059;-92